createdAt,value
2019-01-18T00:00:48.125Z,98995.58
2019-01-18T00:03:19.224Z,99004.80
2019-01-18T00:05:48.805Z,99006.34
2019-01-18T00:08:18.440Z,99014.80
2019-01-18T00:10:47.876Z,99017.13
2019-01-18T00:13:18.969Z,99022.69
2019-01-18T00:15:48.759Z,99029.51
2019-01-18T00:18:18.247Z,99032.37
2019-01-18T00:20:47.781Z,99035.50
2019-01-18T00:23:17.262Z,99043.42
2019-01-18T00:25:46.975Z,99047.67
2019-01-18T00:28:16.447Z,99043.27
2019-01-18T00:30:45.932Z,99050.19
2019-01-18T00:33:15.386Z,99049.44
2019-01-18T00:35:45.405Z,99050.85
2019-01-18T00:38:15.115Z,99054.30
2019-01-18T00:40:44.568Z,99048.45
2019-01-18T00:43:14.030Z,99048.75
2019-01-18T00:45:43.494Z,99057.52
2019-01-18T00:48:12.956Z,99057.77
2019-01-18T00:50:42.396Z,99059.41
2019-01-18T00:53:11.929Z,99065.53
2019-01-18T00:55:41.765Z,99069.26
2019-01-18T00:58:13.214Z,99067.94
2019-01-18T01:00:42.801Z,99075.08
2019-01-18T01:03:12.727Z,99076.15
2019-01-18T01:05:42.276Z,99088.30
2019-01-18T01:08:13.415Z,99084.83
2019-01-18T01:10:44.747Z,99085.14
2019-01-18T01:13:18.006Z,99090.89
2019-01-18T01:15:47.504Z,99098.34
2019-01-18T01:18:17.063Z,99088.82
2019-01-18T01:20:46.523Z,99097.62
2019-01-18T01:23:16.118Z,99103.39
2019-01-18T01:25:45.873Z,99100.79
2019-01-18T01:28:15.335Z,99100.79
2019-01-18T01:30:45.408Z,99112.64
2019-01-18T01:33:14.874Z,99111.61
2019-01-18T01:35:44.609Z,99117.41
2019-01-18T01:38:15.278Z,99134.42
2019-01-18T01:40:44.882Z,99133.84
2019-01-18T01:43:14.370Z,99133.03
2019-01-18T01:45:43.825Z,99135.97
2019-01-18T01:48:13.286Z,99139.09
2019-01-18T01:50:42.736Z,99143.56
2019-01-18T01:53:12.586Z,99143.86
2019-01-18T01:55:42.317Z,99147.80
2019-01-18T01:58:11.857Z,99146.14
2019-01-18T02:00:41.371Z,99143.42
2019-01-18T02:03:10.896Z,99151.78
2019-01-18T02:05:40.382Z,99161.24
2019-01-18T02:08:09.837Z,99159.81
2019-01-18T02:10:40.346Z,99165.84
2019-01-18T02:13:11.434Z,99168.45
2019-01-18T02:15:40.875Z,99168.11
2019-01-18T02:18:10.737Z,99168.90
2019-01-18T02:20:40.204Z,99173.98
2019-01-18T02:23:09.663Z,99173.80
2019-01-18T02:25:39.747Z,99176.47
2019-01-18T02:28:09.241Z,99178.87
2019-01-18T02:30:38.649Z,99185.80
2019-01-18T02:33:08.118Z,99186.86
2019-01-18T02:35:37.571Z,99191.94
2019-01-18T02:38:08.026Z,99196.43
2019-01-18T02:40:37.549Z,99198.25
2019-01-18T02:43:06.996Z,99203.25
2019-01-18T02:45:36.447Z,99204.72
2019-01-18T02:48:05.974Z,99208.69
2019-01-18T02:50:35.678Z,99219.98
2019-01-18T02:53:24.798Z,99220.72
2019-01-18T02:55:54.248Z,99221.28
2019-01-18T02:58:23.708Z,99224.45
2019-01-18T03:00:53.180Z,99219.92
2019-01-18T03:03:22.639Z,99224.91
2019-01-18T03:05:52.425Z,99227.88
2019-01-18T03:08:21.886Z,99231.34
2019-01-18T03:10:51.343Z,99232.17
2019-01-18T03:13:20.804Z,99233.77
2019-01-18T03:15:50.299Z,99235.70
2019-01-18T03:18:19.794Z,99244.63
2019-01-18T03:20:49.256Z,99236.90
2019-01-18T03:23:18.693Z,99243.41
2019-01-18T03:25:48.171Z,99246.28
2019-01-18T03:28:17.681Z,99248.37
2019-01-18T03:30:47.231Z,99243.19
2019-01-18T03:33:16.689Z,99253.98
2019-01-18T03:35:47.251Z,99252.36
2019-01-18T03:38:16.700Z,99253.69
2019-01-18T03:40:46.433Z,99255.63
2019-01-18T03:43:15.891Z,99263.30
2019-01-18T03:45:45.773Z,99262.23
2019-01-18T03:48:15.307Z,99259.06
2019-01-18T03:50:44.756Z,99259.86
2019-01-18T03:53:15.599Z,99253.78
2019-01-18T03:55:45.040Z,99275.97
2019-01-18T03:58:14.814Z,99275.67
2019-01-18T04:00:44.281Z,99277.83
2019-01-18T04:03:13.770Z,99283.41
2019-01-18T04:05:43.676Z,99279.94
2019-01-18T04:08:13.114Z,99286.55
2019-01-18T04:10:43.145Z,99291.33
2019-01-18T04:13:12.840Z,99297.44
2019-01-18T04:15:42.547Z,99294.84
2019-01-18T04:18:12.079Z,99307.29
2019-01-18T04:20:41.568Z,99311.62
2019-01-18T04:23:12.343Z,99306.33
2019-01-18T04:25:41.816Z,99321.03
2019-01-18T04:28:11.263Z,99313.89
2019-01-18T04:30:40.719Z,99316.77
2019-01-18T04:33:10.201Z,99324.16
2019-01-18T04:35:39.625Z,99331.41
2019-01-18T04:38:09.111Z,99329.59
2019-01-18T04:40:38.544Z,99338.47
2019-01-18T04:43:08.610Z,99330.08
2019-01-18T04:45:38.053Z,99327.67
2019-01-18T04:48:07.814Z,99342.31
2019-01-18T04:50:37.292Z,99345.98
2019-01-18T04:53:06.726Z,99351.48
2019-01-18T04:55:37.639Z,99357.53
2019-01-18T04:58:07.078Z,99362.06
2019-01-18T05:00:40.903Z,99368.89
2019-01-18T05:03:08.457Z,99375.19
2019-01-18T05:05:37.897Z,99395.90
2019-01-18T05:08:07.339Z,99395.73
2019-01-18T05:10:37.060Z,99404.33
2019-01-18T05:13:06.513Z,99425.44
2019-01-18T05:15:35.963Z,99435.03
2019-01-18T05:18:05.692Z,99446.16
2019-01-18T05:20:35.212Z,99455.14
2019-01-18T05:23:04.830Z,99466.93
2019-01-18T05:25:34.209Z,99472.30
2019-01-18T05:28:05.282Z,99484.34
2019-01-18T05:30:34.753Z,99485.61
2019-01-18T05:33:04.562Z,99501.48
2019-01-18T05:35:34.026Z,99513.98
2019-01-18T05:38:03.499Z,99522.70
2019-01-18T05:40:32.927Z,99527.86
2019-01-18T05:43:02.395Z,99533.71
2019-01-18T05:45:31.832Z,99548.44
2019-01-18T05:48:01.271Z,99555.07
2019-01-18T05:50:31.095Z,99560.56
2019-01-18T05:53:02.477Z,99567.24
2019-01-18T05:55:31.923Z,99571.82
2019-01-18T05:58:01.399Z,99579.86
2019-01-18T06:00:40.603Z,99585.19
2019-01-18T06:03:11.419Z,99594.53
2019-01-18T06:05:42.287Z,99594.59
2019-01-18T06:08:13.372Z,99598.95
2019-01-18T06:10:42.861Z,99607.34
2019-01-18T06:13:12.303Z,99613.94
2019-01-18T06:15:41.753Z,99618.86
2019-01-18T06:18:11.555Z,99619.40
2019-01-18T06:20:40.999Z,99623.91
2019-01-18T06:23:10.710Z,99630.80
2019-01-18T06:25:40.170Z,99633.65
2019-01-18T06:28:10.070Z,99636.28
2019-01-18T06:30:39.571Z,99647.61
2019-01-18T06:33:09.048Z,99653.95
2019-01-18T06:35:38.566Z,99654.34
2019-01-18T06:38:08.019Z,99659.47
2019-01-18T06:40:37.917Z,99659.81
2019-01-18T06:43:07.353Z,99656.52
2019-01-18T06:45:36.840Z,99665.59
2019-01-18T06:48:06.846Z,99664.48
2019-01-18T06:50:36.679Z,99674.36
2019-01-18T06:53:06.114Z,99682.94
2019-01-18T06:55:35.566Z,99683.24
2019-01-18T06:58:05.503Z,99687.20
2019-01-18T07:00:34.961Z,99694.21
2019-01-18T07:03:04.740Z,99698.55
2019-01-18T07:05:34.203Z,99706.25
2019-01-18T07:08:03.833Z,99711.00
2019-01-18T07:10:33.287Z,99725.56
2019-01-18T07:13:03.127Z,99727.68
2019-01-18T07:15:32.558Z,99733.47
2019-01-18T07:18:02.342Z,99744.36
2019-01-18T07:20:31.846Z,99757.33
2019-01-18T07:23:01.658Z,99752.52
2019-01-18T07:25:31.480Z,99764.83
2019-01-18T07:28:01.308Z,99769.65
2019-01-18T07:30:36.127Z,99771.10
2019-01-18T07:33:07.050Z,99780.12
2019-01-18T07:35:36.491Z,99774.54
2019-01-18T07:38:06.985Z,99780.40
2019-01-18T07:40:36.671Z,99787.44
2019-01-18T07:43:06.913Z,99794.17
2019-01-18T07:45:36.636Z,99790.28
2019-01-18T07:48:06.089Z,99799.58
2019-01-18T07:50:35.541Z,99806.83
2019-01-18T07:53:05.609Z,99811.45
2019-01-18T07:55:35.397Z,99820.81
2019-01-18T07:58:05.211Z,99824.11
2019-01-18T08:00:35.000Z,99831.59
2019-01-18T08:03:04.440Z,99841.63
2019-01-18T08:05:33.901Z,99844.33
2019-01-18T08:08:03.822Z,99853.18
2019-01-18T08:10:33.345Z,99858.90
2019-01-18T08:13:03.856Z,99866.29
2019-01-18T08:15:33.547Z,99868.57
2019-01-18T08:18:03.281Z,99878.08
2019-01-18T08:20:32.720Z,99886.58
2019-01-18T08:23:02.240Z,99890.03
2019-01-18T08:25:31.760Z,99900.34
2019-01-18T08:28:01.347Z,99910.94
2019-01-18T08:30:31.275Z,99912.64
2019-01-18T08:33:00.775Z,99916.52
2019-01-18T08:35:30.495Z,99926.03
2019-01-18T08:38:00.109Z,99929.19
2019-01-18T08:40:31.907Z,99931.95
2019-01-18T08:43:01.344Z,99933.14
2019-01-18T08:45:39.360Z,99944.27
2019-01-18T08:48:09.179Z,99953.06
2019-01-18T08:50:39.260Z,99962.00
2019-01-18T08:53:09.084Z,99965.05
2019-01-18T08:55:38.540Z,99970.37
2019-01-18T08:58:07.977Z,99978.95
2019-01-18T09:00:37.422Z,99985.55
2019-01-18T09:03:07.326Z,99993.09
2019-01-18T09:05:36.769Z,99994.88
2019-01-18T09:08:06.389Z,100003.43
2019-01-18T09:10:36.979Z,100012.22
2019-01-18T09:13:06.443Z,100019.23
2019-01-18T09:15:35.890Z,100030.06
2019-01-18T09:18:05.544Z,100040.32
2019-01-18T09:20:35.034Z,100038.53
2019-01-18T09:23:05.123Z,100053.03
2019-01-18T09:25:34.741Z,100051.23
2019-01-18T09:28:04.758Z,100060.25
2019-01-18T09:30:34.861Z,100067.44
2019-01-18T09:33:05.378Z,100075.34
2019-01-18T09:35:35.306Z,100085.48
2019-01-18T09:38:06.700Z,100083.85
2019-01-18T09:40:36.261Z,100088.61
2019-01-18T09:43:05.722Z,100087.77
2019-01-18T09:45:35.180Z,100088.05
2019-01-18T09:48:06.063Z,100101.16
2019-01-18T09:50:35.813Z,100108.54
2019-01-18T09:53:07.106Z,100114.53
2019-01-18T09:55:36.562Z,100115.94
2019-01-18T09:58:06.129Z,100122.02
2019-01-18T10:00:37.518Z,100128.08
2019-01-18T10:03:06.972Z,100126.38
2019-01-18T10:05:36.414Z,100127.53
2019-01-18T10:08:06.074Z,100133.81
2019-01-18T10:10:35.531Z,100137.53
2019-01-18T10:13:05.344Z,100139.73
2019-01-18T10:15:37.470Z,100137.52
2019-01-18T10:18:07.108Z,100141.52
2019-01-18T10:20:36.833Z,100143.63
2019-01-18T10:23:06.300Z,100144.23
2019-01-18T10:25:36.040Z,100152.08
2019-01-18T10:28:05.791Z,100159.64
2019-01-18T10:30:35.244Z,100156.36
2019-01-18T10:33:04.712Z,100159.52
2019-01-18T10:35:34.504Z,100147.52
2019-01-18T10:38:05.412Z,100160.16
2019-01-18T10:40:35.151Z,100158.44
2019-01-18T10:43:04.861Z,100158.96
2019-01-18T10:45:34.674Z,100160.95
2019-01-18T10:48:04.152Z,100158.59
2019-01-18T10:50:33.651Z,100160.19
2019-01-18T10:53:03.106Z,100167.95
2019-01-18T10:55:32.547Z,100168.98
2019-01-18T10:58:02.014Z,100170.09
2019-01-18T11:00:33.527Z,100169.67
2019-01-18T11:03:03.003Z,100167.25
2019-01-18T11:05:32.447Z,100170.42
2019-01-18T11:08:01.919Z,100170.25
2019-01-18T11:10:31.356Z,100180.66
2019-01-18T11:13:01.164Z,100182.31
2019-01-18T11:15:30.599Z,100180.63
2019-01-18T11:18:00.125Z,100193.45
2019-01-18T11:20:39.006Z,100198.67
2019-01-18T11:23:08.754Z,100200.05
2019-01-18T11:25:38.205Z,100197.19
2019-01-18T11:28:08.035Z,100201.16
2019-01-18T11:30:37.557Z,100199.34
2019-01-18T11:33:07.111Z,100202.61
2019-01-18T11:35:36.829Z,100201.65
2019-01-18T11:38:07.700Z,100198.49
2019-01-18T11:40:37.148Z,100203.45
2019-01-18T11:43:06.911Z,100203.86
2019-01-18T11:45:36.352Z,100209.81
2019-01-18T11:48:06.331Z,100197.61
2019-01-18T11:50:36.054Z,100207.87
2019-01-18T11:53:05.878Z,100211.02
2019-01-18T11:55:36.969Z,100216.28
2019-01-18T11:58:06.815Z,100213.37
2019-01-18T12:00:37.941Z,100219.33
2019-01-18T12:03:07.889Z,100216.69
2019-01-18T12:05:37.694Z,100222.95
2019-01-18T12:08:07.152Z,100228.03
2019-01-18T12:10:36.607Z,100230.13
2019-01-18T12:13:06.063Z,100232.30
2019-01-18T12:15:35.506Z,100230.86
2019-01-18T12:18:05.034Z,100234.98
2019-01-18T12:20:35.336Z,100238.86
2019-01-18T12:23:05.044Z,100240.61
2019-01-18T12:25:34.531Z,100243.92
2019-01-18T12:28:04.055Z,100241.56
2019-01-18T12:30:34.017Z,100241.73
2019-01-18T12:33:03.536Z,100244.09
2019-01-18T12:35:33.044Z,100240.81
2019-01-18T12:38:02.521Z,100251.97
2019-01-18T12:40:32.313Z,100246.60
2019-01-18T12:43:01.783Z,100251.08
2019-01-18T12:45:31.437Z,100249.04
2019-01-18T12:48:00.900Z,100246.48
2019-01-18T12:50:32.398Z,100247.80
2019-01-18T12:53:02.189Z,100248.72
2019-01-18T12:55:31.639Z,100241.80
2019-01-18T12:58:01.105Z,100245.82
2019-01-18T13:00:31.328Z,100245.99
2019-01-18T13:03:01.138Z,100248.48
2019-01-18T13:05:36.662Z,100258.30
2019-01-18T13:08:06.141Z,100257.37
2019-01-18T13:10:35.598Z,100254.63
2019-01-18T13:13:05.515Z,100252.56
2019-01-18T13:15:40.699Z,100255.38
2019-01-18T13:18:10.158Z,100254.84
2019-01-18T13:20:39.972Z,100250.55
2019-01-18T13:23:09.430Z,100251.91
2019-01-18T13:25:38.901Z,100267.88
2019-01-18T13:28:08.358Z,100259.96
2019-01-18T13:30:37.852Z,100267.37
2019-01-18T13:33:07.327Z,100268.97
2019-01-18T13:35:36.773Z,100273.44
2019-01-18T13:38:06.306Z,100276.55
2019-01-18T13:40:35.775Z,100272.02
2019-01-18T13:43:05.260Z,100272.34
2019-01-18T13:45:34.704Z,100270.38
2019-01-18T13:48:04.358Z,100269.92
2019-01-18T13:50:33.809Z,100268.73
2019-01-18T13:53:03.834Z,100280.84
2019-01-18T13:55:33.584Z,100277.13
2019-01-18T13:58:03.069Z,100277.92
2019-01-18T14:00:32.520Z,100281.61
2019-01-18T14:03:02.000Z,100280.67
2019-01-18T14:05:31.441Z,100281.27
2019-01-18T14:08:00.959Z,100282.63
2019-01-18T14:10:36.647Z,100281.31
2019-01-18T14:13:06.120Z,100280.16
2019-01-18T14:15:35.582Z,100286.62
2019-01-18T14:18:05.098Z,100284.08
2019-01-18T14:20:34.564Z,100296.48
2019-01-18T14:23:04.018Z,100295.65
2019-01-18T14:25:33.750Z,100309.66
2019-01-18T14:28:03.541Z,100301.69
2019-01-18T14:30:35.735Z,100293.91
2019-01-18T14:33:04.216Z,100299.33
2019-01-18T14:35:33.976Z,100305.28
2019-01-18T14:38:03.420Z,100299.15
2019-01-18T14:40:32.879Z,100300.45
2019-01-18T14:43:02.709Z,100308.22
2019-01-18T14:45:35.472Z,100301.36
2019-01-18T14:48:05.352Z,100306.38
2019-01-18T14:50:34.939Z,100303.18
2019-01-18T14:53:04.757Z,100305.11
2019-01-18T14:55:35.152Z,100306.73
2019-01-18T14:58:06.962Z,100311.11
2019-01-18T15:00:38.105Z,100313.30
2019-01-18T15:03:07.982Z,100307.16
2019-01-18T15:05:37.702Z,100311.72
2019-01-18T15:08:08.591Z,100313.91
2019-01-18T15:10:38.161Z,100322.31
2019-01-18T15:13:10.782Z,100320.70
2019-01-18T15:15:40.279Z,100318.47
2019-01-18T15:18:10.007Z,100325.91
2019-01-18T15:20:39.466Z,100326.66
2019-01-18T15:23:09.185Z,100320.06
2019-01-18T15:25:38.652Z,100321.52
2019-01-18T15:28:08.113Z,100327.14
2019-01-18T15:30:37.644Z,100330.23
2019-01-18T15:33:09.434Z,100326.73
2019-01-18T15:35:38.314Z,100326.53
2019-01-18T15:38:08.223Z,100323.55
2019-01-18T15:40:41.620Z,100326.75
2019-01-18T15:43:12.860Z,100326.75
2019-01-18T15:45:42.660Z,100333.95
2019-01-18T15:48:12.139Z,100329.39
2019-01-18T15:50:41.625Z,100331.23
2019-01-18T15:53:11.069Z,100328.40
2019-01-18T15:55:40.543Z,100332.76
2019-01-18T15:58:09.990Z,100335.98
2019-01-18T16:00:42.255Z,100334.16
2019-01-18T16:03:15.885Z,100333.67
2019-01-18T16:05:43.121Z,100329.38
2019-01-18T16:08:13.127Z,100333.56
2019-01-18T16:10:42.628Z,100329.08
2019-01-18T16:13:12.173Z,100328.67
2019-01-18T16:15:54.144Z,100334.05
2019-01-18T16:18:24.731Z,100332.13
2019-01-18T16:20:54.378Z,100334.76
2019-01-18T16:23:23.972Z,100332.70
2019-01-18T16:25:53.406Z,100333.28
2019-01-18T16:28:23.234Z,100331.06
2019-01-18T16:30:52.760Z,100334.95
2019-01-18T16:33:23.570Z,100331.09
2019-01-18T16:35:53.308Z,100330.38
2019-01-18T16:38:23.092Z,100327.60
2019-01-18T16:40:52.635Z,100333.23
2019-01-18T16:43:25.585Z,100333.27
2019-01-18T16:45:55.054Z,100336.81
2019-01-18T16:48:24.510Z,100337.78
2019-01-18T16:50:53.986Z,100335.85
2019-01-18T16:53:23.450Z,100337.30
2019-01-18T16:55:52.931Z,100340.05
2019-01-18T16:58:22.379Z,100338.11
2019-01-18T17:00:54.954Z,100342.49
2019-01-18T17:03:30.298Z,100346.62
2019-01-18T17:05:55.620Z,100345.53
2019-01-18T17:08:25.072Z,100347.98
2019-01-18T17:10:54.855Z,100347.75
2019-01-18T17:13:24.357Z,100346.39
2019-01-18T17:15:53.835Z,100348.80
2019-01-18T17:18:24.628Z,100356.52
2019-01-18T17:20:54.098Z,100363.36
2019-01-18T17:23:23.574Z,100364.62
2019-01-18T17:25:53.039Z,100365.52
2019-01-18T17:28:22.567Z,100359.03
2019-01-18T17:30:52.111Z,100359.52
2019-01-18T17:33:21.576Z,100365.71
2019-01-18T17:35:57.500Z,100367.30
2019-01-18T17:38:57.291Z,100369.42
2019-01-18T17:41:44.784Z,100367.42
2019-01-18T17:44:20.451Z,100366.88
2019-01-18T17:47:19.984Z,100362.44
2019-01-18T17:49:55.556Z,100367.81
2019-01-18T17:52:49.858Z,100370.20
2019-01-18T17:55:34.557Z,100374.94
2019-01-18T17:58:25.490Z,100374.05
2019-01-18T18:00:58.499Z,100373.80
2019-01-18T18:03:52.247Z,100377.74
2019-01-18T18:06:46.040Z,100377.47
2019-01-18T18:09:18.681Z,100379.41
2019-01-18T18:11:56.656Z,100380.66
2019-01-18T18:14:32.434Z,100385.84
2019-01-18T18:17:23.124Z,100386.37
2019-01-18T18:20:16.399Z,100401.75
2019-01-18T18:22:54.515Z,100397.81
2019-01-18T18:25:39.059Z,100391.17
2019-01-18T18:28:23.939Z,100397.56
2019-01-18T18:30:59.522Z,100398.25
2019-01-18T18:33:54.873Z,100397.63
2019-01-18T18:36:27.502Z,100399.63
2019-01-18T18:39:14.705Z,100402.31
2019-01-18T18:41:50.035Z,100401.50
2019-01-18T18:44:40.323Z,100408.77
2019-01-18T18:47:30.863Z,100410.53
2019-01-18T18:50:20.898Z,100399.84
2019-01-18T18:53:16.379Z,100397.12
2019-01-18T18:55:58.159Z,100386.54
2019-01-18T18:58:39.222Z,100397.45
2019-01-18T19:01:35.980Z,100408.20
2019-01-18T19:04:14.267Z,100398.66
2019-01-18T19:06:46.919Z,100393.41
2019-01-18T19:09:28.365Z,100397.17
2019-01-18T19:12:09.564Z,100388.93
2019-01-18T19:14:53.362Z,100388.72
2019-01-18T19:17:28.854Z,100389.52
2019-01-18T19:20:07.443Z,100396.81
2019-01-18T19:22:52.021Z,100398.72
2019-01-18T19:25:30.381Z,100400.66
2019-01-18T19:28:33.166Z,100399.97
2019-01-18T19:31:23.843Z,100399.50
2019-01-18T19:34:04.364Z,100393.83
2019-01-18T19:36:45.611Z,100395.38
2019-01-18T19:39:42.537Z,100402.01
2019-01-18T19:42:27.291Z,100398.91
2019-01-18T19:45:02.746Z,100405.41
2019-01-18T19:47:35.386Z,100403.70
2019-01-18T19:50:10.712Z,100405.91
2019-01-18T19:52:46.497Z,100406.28
2019-01-18T19:55:31.407Z,100411.16
2019-01-18T19:58:20.639Z,100412.67
2019-01-18T20:01:09.368Z,100411.90
2019-01-18T20:04:03.120Z,100411.91
2019-01-18T20:06:52.351Z,100411.08
2019-01-18T20:09:37.453Z,100419.32
2019-01-18T20:12:21.914Z,100414.01
2019-01-18T20:15:15.670Z,100410.13
2019-01-18T20:17:48.483Z,100410.25
2019-01-18T20:20:26.612Z,100415.95
2019-01-18T20:23:05.570Z,100408.99
2019-01-18T20:25:43.983Z,100410.63
2019-01-18T20:28:24.860Z,100418.98
2019-01-18T20:31:00.607Z,100419.14
2019-01-18T20:34:00.547Z,100416.66
2019-01-18T20:36:39.020Z,100416.66
2019-01-18T20:39:33.183Z,100420.03
2019-01-18T20:42:11.912Z,100418.21
2019-01-18T20:45:01.026Z,100423.95
2019-01-18T20:47:58.097Z,100425.16
2019-01-18T20:50:30.788Z,100428.39
2019-01-18T20:53:20.186Z,100422.64
2019-01-18T20:56:05.162Z,100428.50
2019-01-18T20:58:44.059Z,100429.05
2019-01-18T21:01:36.370Z,100437.73
2019-01-18T21:04:36.425Z,100436.32
2019-01-18T21:07:17.176Z,100436.45
2019-01-18T21:09:58.423Z,100440.20
2019-01-18T21:12:43.217Z,100443.13
2019-01-18T21:15:18.563Z,100443.21
2019-01-18T21:18:10.804Z,100444.37
2019-01-18T21:21:01.478Z,100451.81
2019-01-18T21:23:34.290Z,100452.84
2019-01-18T21:26:12.782Z,100450.00
2019-01-18T21:29:00.816Z,100450.33
2019-01-18T21:31:51.348Z,100447.45
2019-01-18T21:34:33.113Z,100441.95
2019-01-18T21:37:09.169Z,100447.36
2019-01-18T21:39:53.818Z,100452.78
2019-01-18T21:42:47.527Z,100448.41
2019-01-18T21:45:20.155Z,100443.47
2019-01-18T21:48:22.126Z,100444.28
2019-01-18T21:51:06.923Z,100442.84
2019-01-18T21:53:42.607Z,100441.66
2019-01-18T21:56:31.798Z,100436.02
2019-01-18T21:59:07.379Z,100443.75
2019-01-18T22:01:45.879Z,100439.56
2019-01-18T22:04:27.571Z,100448.91
2019-01-18T22:07:22.239Z,100442.19
2019-01-18T22:10:00.620Z,100447.59
2019-01-18T22:12:55.818Z,100442.22
2019-01-18T22:15:31.080Z,100445.11
2019-01-18T22:18:21.810Z,100441.09
2019-01-18T22:21:15.310Z,100448.09
2019-01-18T22:23:50.398Z,100442.97
2019-01-18T22:26:31.836Z,100443.69
2019-01-18T22:29:31.466Z,100442.62
2019-01-18T22:32:51.824Z,100442.84
2019-01-18T22:35:29.669Z,100438.27
2019-01-18T22:38:14.421Z,100437.51
2019-01-18T22:40:55.758Z,100438.73
2019-01-18T22:43:31.588Z,100435.52
2019-01-18T22:46:27.100Z,100440.16
2019-01-18T22:49:05.730Z,100439.15
2019-01-18T22:51:50.442Z,100437.33
2019-01-18T22:54:34.437Z,100438.92
2019-01-18T22:57:07.057Z,100442.90
2019-01-18T22:59:42.468Z,100442.62
2019-01-18T23:02:19.350Z,100443.98
2019-01-18T23:04:55.650Z,100439.59
2019-01-18T23:07:31.514Z,100439.56
2019-01-18T23:10:15.860Z,100443.92
2019-01-18T23:12:57.604Z,100440.45
2019-01-18T23:15:55.954Z,100444.56
2019-01-18T23:18:31.439Z,100446.42
2019-01-18T23:21:29.819Z,100438.96
2019-01-18T23:24:08.233Z,100440.61
2019-01-18T23:26:58.209Z,100437.52
2019-01-18T23:29:39.970Z,100440.34
2019-01-18T23:32:30.308Z,100440.95
2019-01-18T23:35:20.964Z,100435.03
2019-01-18T23:38:10.644Z,100430.20
2019-01-18T23:40:48.922Z,100431.84
2019-01-18T23:43:44.199Z,100430.11
2019-01-18T23:46:25.237Z,100431.34
2019-01-18T23:49:13.062Z,100430.88
2019-01-18T23:51:45.700Z,100421.70
2019-01-18T23:54:51.615Z,100429.84
2019-01-18T23:57:39.653Z,100426.41
